Time;durP1;ratioP1;P1;durP2;ratioP2;P2;SDS_P1;SDS_P2;PMS_P1;PMS_P2;Temp;Humidity;BMP_temperature;BMP_pressure;BME280_temperature;BME280_humidity;BME280_pressure;Samples;Min_cycle;Max_cycle;Signal;HPM_P1;HPM_P2
2022/12/10 00:00:33;;;;;;;;;;;;;;;0.19;100.00;95202.03;5093829;28;19961;-73
2022/12/10 00:02:59;;;;;;;;;;;;;;;0.20;100.00;95203.63;5093724;28;19946;-74
2022/12/10 00:05:25;;;;;;;;;;;;;;;0.18;100.00;95203.78;5093669;28;20012;-74
2022/12/10 00:07:51;;;;;;;;;;;;;;;0.17;100.00;95209.16;5092782;28;20015;-73
2022/12/10 00:10:17;;;;;;;;;;;;;;;0.17;100.00;95202.22;5094073;28;19953;-74
2022/12/10 00:12:43;;;;;;;;;;;;;;;0.20;100.00;95203.63;5093882;28;19949;-74
2022/12/10 00:15:09;;;;;;;;;;;;;;;0.24;100.00;95207.44;5093630;28;19960;-74
2022/12/10 00:17:34;;;;;;;;;;;;;;;0.28;100.00;95210.44;5092938;28;19953;-74
2022/12/10 00:20:00;;;;;;;;;;;;;;;0.30;100.00;95208.47;5093944;28;20002;-74
2022/12/10 00:22:26;;;;;;;;;;;;;;;0.29;100.00;95199.91;5093602;28;19945;-74
2022/12/10 00:24:52;;;;;;;;;;;;;;;0.31;100.00;95210.84;5093930;28;19951;-74
2022/12/10 00:27:18;;;;;;;;;;;;;;;0.31;100.00;95207.47;5093486;28;19958;-74
2022/12/10 00:29:44;;;;;;;;;;;;;;;0.29;100.00;95207.66;5093469;28;19960;-74
2022/12/10 00:32:10;;;;;;;;;;;;;;;0.29;100.00;95202.50;5093327;28;20376;-74
2022/12/10 00:34:36;;;;;;;;;;;;;;;0.29;100.00;95197.34;5093553;28;20435;-74
2022/12/10 00:37:02;;;;;;;;;;;;;;;0.28;100.00;95200.91;5093314;28;19989;-75
2022/12/10 00:39:28;;;;;;;;;;;;;;;0.30;100.00;95193.81;5075449;28;20042;-74
2022/12/10 00:41:54;;;;;;;;;;;;;;;0.32;100.00;95209.88;5093496;28;20310;-74
2022/12/10 00:44:20;;;;;;;;;;;;;;;0.32;100.00;95204.72;5093623;28;19954;-74
2022/12/10 00:46:46;;;;;;;;;;;;;;;0.34;100.00;95202.75;5093446;28;19978;-74
2022/12/10 00:49:12;;;;;;;;;;;;;;;0.36;100.00;95211.13;5093346;28;20016;-74
2022/12/10 00:51:38;;;;;;;;;;;;;;;0.38;100.00;95214.31;5075248;28;19947;-74
2022/12/10 00:54:04;;;;;;;;;;;;;;;0.38;100.00;95214.31;5093614;28;19953;-74
2022/12/10 00:56:32;;;;;;;;;;;;;;;0.37;100.00;95217.84;5094398;28;19962;-75
2022/12/10 00:58:58;;;;;;;;;;;;;;;0.36;100.00;95218.84;5084759;28;19946;-74
2022/12/10 01:01:31;;;;;;;;;;;;;;;0.36;100.00;95223.22;5096950;28;19951;-74
2022/12/10 01:03:59;;;;;;;;;;;;;;;0.37;100.00;95222.22;5095651;28;19951;-73
2022/12/10 01:06:30;;;;;;;;;;;;;;;0.36;100.00;95229.16;5097095;28;19948;-74
2022/12/10 01:08:57;;;;;;;;;;;;;;;0.37;100.00;95232.53;5096967;28;19946;-74
2022/12/10 01:11:25;;;;;;;;;;;;;;;0.37;100.00;95233.31;5096858;28;19952;-74
2022/12/10 01:13:51;;;;;;;;;;;;;;;0.34;100.00;95227.75;5096977;28;19949;-74
2022/12/10 01:16:18;;;;;;;;;;;;;;;0.32;100.00;95235.66;5096681;28;20451;-74
2022/12/10 01:18:44;;;;;;;;;;;;;;;0.33;100.00;95237.25;5096668;28;19949;-74
2022/12/10 01:21:15;;;;;;;;;;;;;;;0.34;100.00;95231.13;5096771;28;19957;-74
2022/12/10 01:23:42;;;;;;;;;;;;;;;0.36;100.00;95238.69;5096992;28;20313;-74
2022/12/10 01:26:10;;;;;;;;;;;;;;;0.38;100.00;95250.41;5096558;28;20333;-74
2022/12/10 01:28:37;;;;;;;;;;;;;;;0.39;100.00;95233.94;5096669;28;19950;-74
2022/12/10 01:31:04;;;;;;;;;;;;;;;0.41;100.00;95236.34;5096418;28;19945;-74
2022/12/10 01:33:31;;;;;;;;;;;;;;;0.39;100.00;95248.63;5096854;28;19952;-74
2022/12/10 01:36:01;;;;;;;;;;;;;;;0.39;100.00;95243.47;5096040;28;19957;-74
2022/12/10 01:38:26;;;;;;;;;;;;;;;0.41;100.00;95246.66;5096291;28;19963;-74
2022/12/10 01:40:52;;;;;;;;;;;;;;;0.40;100.00;95245.06;5096328;28;19972;-76
2022/12/10 01:43:18;;;;;;;;;;;;;;;0.42;100.00;95248.28;5095065;28;20041;-74
2022/12/10 01:45:44;;;;;;;;;;;;;;;0.41;100.00;95246.66;5096094;28;20032;-74
2022/12/10 01:48:10;;;;;;;;;;;;;;;0.42;100.00;95250.84;5096300;28;20010;-74
2022/12/10 01:50:36;;;;;;;;;;;;;;;0.39;100.00;95244.25;5096169;28;19952;-74
2022/12/10 01:53:02;;;;;;;;;;;;;;;0.33;100.00;95247.56;5096037;28;20374;-77
2022/12/10 01:55:43;;;;;;;;;;;;;;;0.31;100.00;95254.69;5095956;28;20025;-74
2022/12/10 01:58:09;;;;;;;;;;;;;;;0.29;100.00;95248.91;5096282;28;19962;-74
2022/12/10 02:00:38;;;;;;;;;;;;;;;0.29;100.00;95256.66;5096011;28;19949;-74
2022/12/10 02:03:13;;;;;;;;;;;;;;;0.30;100.00;95262.63;5095860;28;19942;-74
2022/12/10 02:05:39;;;;;;;;;;;;;;;0.29;100.00;95255.84;5095780;28;19942;-74
2022/12/10 02:08:14;;;;;;;;;;;;;;;0.29;100.00;95266.97;5094868;28;19941;-74
2022/12/10 02:11:03;;;;;;;;;;;;;;;0.28;100.00;95262.81;5095883;28;20420;-74
2022/12/10 02:13:35;;;;;;;;;;;;;;;0.24;100.00;95253.03;5084950;28;19952;-73
2022/12/10 02:16:07;;;;;;;;;;;;;;;0.20;100.00;95263.69;5095668;28;19962;-73
2022/12/10 02:18:43;;;;;;;;;;;;;;;0.17;100.00;95250.41;5095503;28;20403;-73
2022/12/10 02:21:32;;;;;;;;;;;;;;;0.11;100.00;95233.88;5094477;28;20317;-73
2022/12/10 02:24:00;;;;;;;;;;;;;;;0.05;100.00;95237.19;5089874;28;19953;-73
2022/12/10 02:26:31;;;;;;;;;;;;;;;0.01;100.00;95230.78;5096000;28;19955;-74
2022/12/10 02:29:14;;;;;;;;;;;;;;;-0.04;100.00;95236.50;5095275;28;19963;-74
2022/12/10 02:31:44;;;;;;;;;;;;;;;-0.07;100.00;95230.88;5095360;28;19951;-74
2022/12/10 02:34:10;;;;;;;;;;;;;;;-0.11;100.00;95222.72;5095742;28;19953;-74
2022/12/10 02:36:38;;;;;;;;;;;;;;;-0.14;100.00;95235.97;5095518;28;19975;-74
2022/12/10 02:39:07;;;;;;;;;;;;;;;-0.14;100.00;95235.19;5095291;28;19948;-74
2022/12/10 02:41:56;;;;;;;;;;;;;;;-0.16;100.00;95244.88;5095162;28;19951;-73
2022/12/10 02:44:24;;;;;;;;;;;;;;;-0.18;100.00;95237.31;5084342;28;19950;-74
2022/12/10 02:46:52;;;;;;;;;;;;;;;-0.16;100.00;95239.72;5095176;28;19947;-74
2022/12/10 02:49:18;;;;;;;;;;;;;;;-0.16;100.00;95250.81;5095229;28;20425;-74
2022/12/10 02:51:44;;;;;;;;;;;;;;;-0.16;100.00;95248.25;5093859;28;19954;-74
2022/12/10 02:54:29;;;;;;;;;;;;;;;-0.13;100.00;95260.75;5094832;28;19951;-74
2022/12/10 02:56:59;;;;;;;;;;;;;;;-0.10;100.00;95247.50;5094851;28;19970;-74
2022/12/10 02:59:28;;;;;;;;;;;;;;;-0.06;100.00;95235.06;5095124;28;19958;-73
2022/12/10 03:02:05;;;;;;;;;;;;;;;-0.04;100.00;95231.34;5094728;28;19950;-74
2022/12/10 03:04:35;;;;;;;;;;;;;;;-0.06;100.00;95211.88;5095244;28;20295;-74
2022/12/10 03:07:04;;;;;;;;;;;;;;;-0.04;100.00;95217.66;5094632;28;20317;-74
2022/12/10 03:09:37;;;;;;;;;;;;;;;-0.02;100.00;95220.84;5094457;28;19972;-73
2022/12/10 03:12:12;;;;;;;;;;;;;;;0.00;100.00;95208.59;5094438;28;19959;-74
2022/12/10 03:14:38;;;;;;;;;;;;;;;0.02;100.00;95196.28;5093251;28;19946;-73
2022/12/10 03:17:05;;;;;;;;;;;;;;;0.01;100.00;95207.59;5094558;28;19967;-74
2022/12/10 03:19:35;;;;;;;;;;;;;;;0.04;100.00;95211.56;5094103;28;20291;-74
2022/12/10 03:22:02;;;;;;;;;;;;;;;0.08;100.00;95220.53;5094670;28;19960;-74
2022/12/10 03:24:29;;;;;;;;;;;;;;;0.08;100.00;95234.22;5094096;28;19955;-74
2022/12/10 03:26:57;;;;;;;;;;;;;;;0.11;100.00;95238.22;5094182;28;19953;-74
2022/12/10 03:29:33;;;;;;;;;;;;;;;0.14;100.00;95243.81;5094446;28;19955;-74
2022/12/10 03:32:00;;;;;;;;;;;;;;;0.10;100.00;95240.00;5094388;28;19954;-74
2022/12/10 03:34:26;;;;;;;;;;;;;;;0.10;100.00;95242.56;5094132;28;19960;-75
2022/12/10 03:36:52;;;;;;;;;;;;;;;0.12;100.00;95243.19;5093922;28;19979;-74
2022/12/10 03:39:18;;;;;;;;;;;;;;;0.10;100.00;95239.19;5094249;28;19965;-74
2022/12/10 03:41:44;;;;;;;;;;;;;;;0.09;100.00;95232.47;5094026;28;19960;-74
2022/12/10 03:44:10;;;;;;;;;;;;;;;0.07;100.00;95224.91;5093945;28;20386;-73
2022/12/10 03:46:36;;;;;;;;;;;;;;;0.06;100.00;95233.59;5092951;28;19943;-74
2022/12/10 03:49:03;;;;;;;;;;;;;;;0.07;100.00;95231.84;5093899;28;20318;-74
2022/12/10 03:51:28;;;;;;;;;;;;;;;0.07;100.00;95231.84;5093990;28;19958;-76
2022/12/10 03:53:55;;;;;;;;;;;;;;;0.06;100.00;95235.38;5093918;28;19950;-74
2022/12/10 03:56:21;;;;;;;;;;;;;;;0.07;100.00;95232.63;5093976;28;19977;-74
2022/12/10 03:58:47;;;;;;;;;;;;;;;0.05;100.00;95238.97;5093933;28;19960;-74
2022/12/10 04:01:13;;;;;;;;;;;;;;;0.05;100.00;95246.69;5093859;28;20387;-74
2022/12/10 04:03:40;;;;;;;;;;;;;;;0.06;100.00;95250.84;5093820;28;19954;-74
2022/12/10 04:06:10;;;;;;;;;;;;;;;0.07;100.00;95253.25;5093759;28;19954;-74
2022/12/10 04:08:36;;;;;;;;;;;;;;;0.08;100.00;95254.84;5092435;28;19955;-74
2022/12/10 04:11:06;;;;;;;;;;;;;;;0.09;100.00;95256.44;5093755;28;19959;-74
2022/12/10 04:16:29;;;;;;;;;;;;;;;0.09;100.00;95255.66;5083092;28;19965;-74
2022/12/10 04:18:56;;;;;;;;;;;;;;;0.11;100.00;95261.44;5080980;28;19944;-74
2022/12/10 04:26:52;;;;;;;;;;;;;;;0.05;100.00;95272.47;5093613;28;19961;-74
2022/12/10 04:29:25;;;;;;;;;;;;;;;0.05;100.00;95272.47;5092483;28;19961;-74
2022/12/10 04:31:52;;;;;;;;;;;;;;;0.08;100.00;95269.50;5095200;28;19952;-74
2022/12/10 04:34:18;;;;;;;;;;;;;;;0.11;100.00;95275.13;5097781;28;19958;-74
2022/12/10 04:36:44;;;;;;;;;;;;;;;0.14;100.00;95268.78;5097398;28;19975;-74
2022/12/10 04:39:13;;;;;;;;;;;;;;;0.13;100.00;95273.16;5097505;28;19957;-74
2022/12/10 04:41:40;;;;;;;;;;;;;;;0.12;100.00;95275.91;5097523;28;19954;-74
2022/12/10 04:44:07;;;;;;;;;;;;;;;0.10;100.00;95267.56;5097424;28;19945;-74
2022/12/10 04:46:33;;;;;;;;;;;;;;;0.08;100.00;95267.72;5097557;28;19952;-74
2022/12/10 04:48:59;;;;;;;;;;;;;;;0.10;100.00;95264.97;5097278;28;20006;-74
2022/12/10 04:51:25;;;;;;;;;;;;;;;0.14;100.00;95266.22;5097217;28;19946;-74
2022/12/10 04:53:50;;;;;;;;;;;;;;;0.14;100.00;95261.06;5096027;28;19944;-74
2022/12/10 04:56:16;;;;;;;;;;;;;;;0.13;100.00;95264.63;5097512;28;20102;-74
2022/12/10 04:58:42;;;;;;;;;;;;;;;0.12;100.00;95263.81;5097316;28;20014;-74
2022/12/10 05:01:09;;;;;;;;;;;;;;;0.11;100.00;95251.91;5097207;28;19960;-74
2022/12/10 05:03:35;;;;;;;;;;;;;;;0.12;100.00;95252.72;5097125;28;20408;-74
2022/12/10 05:06:06;;;;;;;;;;;;;;;0.14;100.00;95248.16;5096939;28;19950;-74
2022/12/10 05:08:32;;;;;;;;;;;;;;;0.17;100.00;95247.81;5097188;28;19946;-74
2022/12/10 05:11:01;;;;;;;;;;;;;;;0.18;100.00;95254.56;5096870;28;20368;-74
2022/12/10 05:13:27;;;;;;;;;;;;;;;0.19;100.00;95256.16;5096923;28;19955;-74
2022/12/10 05:15:53;;;;;;;;;;;;;;;0.20;100.00;95261.13;5097569;28;20398;-74
2022/12/10 05:18:19;;;;;;;;;;;;;;;0.19;100.00;95258.75;5096778;28;20006;-74
2022/12/10 05:20:45;;;;;;;;;;;;;;;0.17;100.00;95258.13;5096736;28;19945;-74
2022/12/10 05:23:30;;;;;;;;;;;;;;;0.10;100.00;95258.03;5095273;28;19961;-74
2022/12/10 05:26:06;;;;;;;;;;;;;;;0.05;100.00;95252.63;5097020;28;19957;-74
2022/12/10 05:28:33;;;;;;;;;;;;;;;-0.01;100.00;95258.50;5096468;28;19963;-74
2022/12/10 05:30:59;;;;;;;;;;;;;;;-0.06;100.00;95255.69;5095353;28;19965;-74
2022/12/10 05:33:25;;;;;;;;;;;;;;;-0.10;100.00;95255.25;5096986;28;19955;-74
2022/12/10 05:35:56;;;;;;;;;;;;;;;-0.10;100.00;95252.66;5096057;28;19940;-74
2022/12/10 05:38:21;;;;;;;;;;;;;;;-0.11;100.00;95253.63;5096535;28;19958;-74
2022/12/10 05:40:47;;;;;;;;;;;;;;;-0.10;100.00;95250.09;5096209;28;19951;-74
2022/12/10 05:43:13;;;;;;;;;;;;;;;-0.13;100.00;95260.75;5078140;28;19956;-74
2022/12/10 05:45:39;;;;;;;;;;;;;;;-0.16;100.00;95263.69;5096197;28;19944;-74
2022/12/10 05:48:05;;;;;;;;;;;;;;;-0.17;100.00;95263.88;5095155;28;19999;-74
2022/12/10 05:50:32;;;;;;;;;;;;;;;-0.19;100.00;95269.19;5096257;28;20322;-74
2022/12/10 05:52:58;;;;;;;;;;;;;;;-0.22;100.00;95267.78;5095996;28;19955;-73
2022/12/10 05:55:24;;;;;;;;;;;;;;;-0.23;100.00;95276.50;5096163;28;19953;-74
2022/12/10 05:57:50;;;;;;;;;;;;;;;-0.23;100.00;95266.19;5096172;28;19971;-74
2022/12/10 06:00:16;;;;;;;;;;;;;;;-0.22;100.00;95267.00;5095936;28;20008;-74
2022/12/10 06:02:42;;;;;;;;;;;;;;;-0.19;100.00;95263.25;5096113;28;19948;-74
2022/12/10 06:05:08;;;;;;;;;;;;;;;-0.20;100.00;95275.34;5096083;28;19983;-74
2022/12/10 06:07:34;;;;;;;;;;;;;;;-0.21;100.00;95278.88;5095954;28;20325;-75
2022/12/10 06:10:00;;;;;;;;;;;;;;;-0.18;100.00;95282.91;5095705;28;19993;-74
2022/12/10 06:12:25;;;;;;;;;;;;;;;-0.17;100.00;95281.91;5095775;28;20039;-74
2022/12/10 06:14:51;;;;;;;;;;;;;;;-0.17;100.00;95281.91;5096028;28;20286;-74
2022/12/10 06:17:17;;;;;;;;;;;;;;;-0.19;100.00;95286.44;5095513;28;19965;-74
2022/12/10 06:19:43;;;;;;;;;;;;;;;-0.18;100.00;95291.41;5095927;28;19954;-75
2022/12/10 06:22:09;;;;;;;;;;;;;;;-0.18;100.00;95301.72;5094280;28;19991;-74
2022/12/10 06:24:35;;;;;;;;;;;;;;;-0.17;100.00;95300.72;5095619;28;19995;-74
2022/12/10 06:27:00;;;;;;;;;;;;;;;-0.16;100.00;95302.34;5095267;28;20419;-74
2022/12/10 06:29:26;;;;;;;;;;;;;;;-0.12;100.00;95315.69;5094596;28;20016;-74
2022/12/10 06:31:52;;;;;;;;;;;;;;;-0.12;100.00;95308.75;5094197;28;20001;-74
2022/12/10 06:34:18;;;;;;;;;;;;;;;-0.12;100.00;95313.09;5095309;28;19964;-74
2022/12/10 06:36:44;;;;;;;;;;;;;;;-0.13;100.00;95314.84;5095187;28;20029;-74
2022/12/10 06:39:10;;;;;;;;;;;;;;;-0.16;100.00;95317.81;5095100;28;19999;-74
2022/12/10 06:41:36;;;;;;;;;;;;;;;-0.17;100.00;95333.44;5095297;28;19951;-74
2022/12/10 06:44:02;;;;;;;;;;;;;;;-0.22;100.00;95329.63;5095450;28;19980;-74
2022/12/10 06:46:28;;;;;;;;;;;;;;;-0.24;100.00;95321.25;5095248;28;20417;-73
2022/12/10 06:48:54;;;;;;;;;;;;;;;-0.27;100.00;95326.78;5094946;28;19949;-73
2022/12/10 06:51:20;;;;;;;;;;;;;;;-0.28;100.00;95325.16;5094844;28;20000;-74
2022/12/10 06:53:46;;;;;;;;;;;;;;;-0.33;100.00;95327.50;5094520;28;19955;-74
2022/12/10 06:56:14;;;;;;;;;;;;;;;-0.34;100.00;95325.88;5094792;28;19953;-74
2022/12/10 06:58:41;;;;;;;;;;;;;;;-0.34;100.00;95328.44;5094783;28;20022;-73
2022/12/10 07:01:09;;;;;;;;;;;;;;;-0.35;100.00;95333.81;5094897;28;20313;-74
2022/12/10 07:03:34;;;;;;;;;;;;;;;-0.36;100.00;95330.41;5094706;28;19950;-74
2022/12/10 07:06:01;;;;;;;;;;;;;;;-0.36;100.00;95342.50;5094565;28;20451;-74
2022/12/10 07:08:27;;;;;;;;;;;;;;;-0.39;100.00;95348.00;5094703;28;20324;-74
2022/12/10 07:10:53;;;;;;;;;;;;;;;-0.41;100.00;95350.75;5094809;28;20033;-74
2022/12/10 07:13:19;;;;;;;;;;;;;;;-0.42;100.00;95349.13;5094640;28;19953;-74
2022/12/10 07:15:45;;;;;;;;;;;;;;;-0.45;100.00;95357.22;5093778;28;20004;-74
2022/12/10 07:18:11;;;;;;;;;;;;;;;-0.49;100.00;95354.19;5094670;28;20015;-74
2022/12/10 07:20:36;;;;;;;;;;;;;;;-0.51;100.00;95345.84;5094259;28;20414;-74
2022/12/10 07:23:02;;;;;;;;;;;;;;;-0.53;100.00;95341.84;5094438;28;19964;-74
2022/12/10 07:25:29;;;;;;;;;;;;;;;-0.54;100.00;95348.78;5094475;28;20020;-74
2022/12/10 07:27:55;;;;;;;;;;;;;;;-0.55;100.00;95349.75;5094290;28;19954;-74
2022/12/10 07:30:21;;;;;;;;;;;;;;;-0.54;100.00;95355.72;5094510;28;19955;-74
2022/12/10 07:32:47;;;;;;;;;;;;;;;-0.52;100.00;95351.97;5094406;28;20393;-74
2022/12/10 07:35:13;;;;;;;;;;;;;;;-0.53;100.00;95363.25;5094321;28;19958;-74
2022/12/10 07:37:39;;;;;;;;;;;;;;;-0.50;100.00;95362.91;5092641;28;20026;-74
2022/12/10 07:40:05;;;;;;;;;;;;;;;-0.47;100.00;95374.63;5094214;28;20002;-74
2022/12/10 07:42:31;;;;;;;;;;;;;;;-0.46;100.00;95374.47;5094124;28;19949;-74
2022/12/10 07:44:57;;;;;;;;;;;;;;;-0.42;100.00;95373.13;5094008;28;19999;-74
2022/12/10 07:47:22;;;;;;;;;;;;;;;-0.39;100.00;95379.72;5094269;28;19996;-74
2022/12/10 07:49:48;;;;;;;;;;;;;;;-0.42;100.00;95383.44;5093805;28;20001;-74
2022/12/10 07:52:14;;;;;;;;;;;;;;;-0.41;100.00;95386.81;5092809;28;20386;-74
2022/12/10 07:54:40;;;;;;;;;;;;;;;-0.38;100.00;95388.22;5094041;28;19948;-74
2022/12/10 07:57:06;;;;;;;;;;;;;;;-0.38;100.00;95386.44;5093924;28;19962;-74
2022/12/10 07:59:32;;;;;;;;;;;;;;;-0.38;100.00;95381.28;5093948;28;19954;-74
2022/12/10 08:01:58;;;;;;;;;;;;;;;-0.42;100.00;95385.19;5093810;28;19951;-74
2022/12/10 08:04:23;;;;;;;;;;;;;;;-0.42;100.00;95377.47;5093883;28;19966;-74
2022/12/10 08:06:49;;;;;;;;;;;;;;;-0.39;100.00;95379.72;5092838;28;20390;-74
2022/12/10 08:09:15;;;;;;;;;;;;;;;-0.39;100.00;95368.63;5093996;28;19987;-74
2022/12/10 08:11:41;;;;;;;;;;;;;;;-0.41;100.00;95374.72;5093784;28;19948;-74
2022/12/10 08:14:07;;;;;;;;;;;;;;;-0.40;100.00;95372.94;5093677;28;19961;-74
2022/12/10 08:16:33;;;;;;;;;;;;;;;-0.35;100.00;95380.97;5093547;28;19956;-73
2022/12/10 08:19:00;;;;;;;;;;;;;;;-0.35;100.00;95378.38;5093371;28;19950;-74
2022/12/10 08:21:28;;;;;;;;;;;;;;;-0.34;100.00;95386.91;5093675;28;19946;-74
2022/12/10 08:23:54;;;;;;;;;;;;;;;-0.36;100.00;95394.78;5093547;28;19952;-74
2022/12/10 08:26:22;;;;;;;;;;;;;;;-0.37;100.00;95385.47;5093539;28;20416;-73
2022/12/10 08:28:48;;;;;;;;;;;;;;;-0.34;100.00;95397.22;5093498;28;19949;-74
2022/12/10 08:31:15;;;;;;;;;;;;;;;-0.28;100.00;95399.88;5093642;28;19964;-74
2022/12/10 08:33:41;;;;;;;;;;;;;;;-0.22;100.00;95398.38;5093403;28;19948;-74
2022/12/10 08:36:08;;;;;;;;;;;;;;;-0.18;100.00;95404.78;5093598;28;19989;-74
2022/12/10 08:38:34;;;;;;;;;;;;;;;-0.12;100.00;95405.88;5084059;28;19973;-74
2022/12/10 08:41:05;;;;;;;;;;;;;;;-0.10;100.00;95409.06;5093243;28;19985;-74
2022/12/10 08:43:31;;;;;;;;;;;;;;;-0.15;100.00;95412.16;5093520;28;20412;-74
2022/12/10 08:45:59;;;;;;;;;;;;;;;-0.13;100.00;95414.56;5093230;28;19951;-74
2022/12/10 08:48:25;;;;;;;;;;;;;;;-0.12;100.00;95401.50;5093411;28;19949;-74
2022/12/10 08:50:51;;;;;;;;;;;;;;;-0.12;100.00;95396.34;5093223;28;19960;-74
2022/12/10 08:53:17;;;;;;;;;;;;;;;-0.07;100.00;95412.06;5093511;28;20373;-74
2022/12/10 08:55:43;;;;;;;;;;;;;;;-0.03;100.00;95415.91;5093418;28;20426;-73
2022/12/10 08:58:09;;;;;;;;;;;;;;;-0.04;100.00;95419.47;5093258;28;19976;-73
2022/12/10 09:00:35;;;;;;;;;;;;;;;0.00;100.00;95430.22;5093083;28;19953;-73
2022/12/10 09:03:01;;;;;;;;;;;;;;;-0.02;100.00;95432.97;5092475;28;19953;-74
2022/12/10 09:05:27;;;;;;;;;;;;;;;-0.06;100.00;95431.72;5093287;28;19974;-74
2022/12/10 09:07:53;;;;;;;;;;;;;;;-0.08;100.00;95423.38;5093427;28;19958;-74
2022/12/10 09:10:19;;;;;;;;;;;;;;;-0.09;100.00;95431.25;5093412;28;19949;-74
2022/12/10 09:12:45;;;;;;;;;;;;;;;-0.09;100.00;95436.41;5093228;28;19957;-73
2022/12/10 09:15:10;;;;;;;;;;;;;;;-0.06;100.00;95436.88;5092973;28;19951;-74
2022/12/10 09:17:38;;;;;;;;;;;;;;;-0.01;100.00;95436.34;5094179;28;19967;-73
2022/12/10 09:20:04;;;;;;;;;;;;;;;-0.01;100.00;95444.88;5096630;28;20398;-74
2022/12/10 09:22:30;;;;;;;;;;;;;;;-0.01;100.00;95455.16;5096873;28;19958;-74
2022/12/10 09:24:56;;;;;;;;;;;;;;;-0.03;100.00;95457.13;5096625;28;19949;-74
2022/12/10 09:27:22;;;;;;;;;;;;;;;-0.01;100.00;95464.69;5096731;28;19956;-74
2022/12/10 09:29:47;;;;;;;;;;;;;;;-0.01;100.00;95462.91;5096458;28;19958;-74
2022/12/10 09:32:13;;;;;;;;;;;;;;;0.00;100.00;95463.72;5085940;28;20373;-73
2022/12/10 09:34:39;;;;;;;;;;;;;;;0.02;100.00;95461.75;5096369;28;19966;-73
2022/12/10 09:37:05;;;;;;;;;;;;;;;0.02;100.00;95464.31;5096529;28;19977;-74
2022/12/10 09:39:31;;;;;;;;;;;;;;;0.01;100.00;95473.06;5096474;28;20032;-74
2022/12/10 09:42:06;;;;;;;;;;;;;;;0.02;100.00;95461.75;5096328;28;19953;-74
2022/12/10 09:44:37;;;;;;;;;;;;;;;0.02;100.00;95468.69;5096739;28;20399;-74
2022/12/10 09:47:05;;;;;;;;;;;;;;;0.01;100.00;95462.75;5095033;28;20033;-74
2022/12/10 09:49:31;;;;;;;;;;;;;;;0.06;100.00;95460.41;5096540;28;19947;-73
2022/12/10 09:51:58;;;;;;;;;;;;;;;0.09;100.00;95449.78;5095961;28;19945;-74
2022/12/10 09:54:26;;;;;;;;;;;;;;;0.14;100.00;95452.59;5095953;28;19963;-74
2022/12/10 09:56:53;;;;;;;;;;;;;;;0.16;100.00;95449.84;5096384;28;19947;-74
2022/12/10 09:59:21;;;;;;;;;;;;;;;0.16;100.00;95450.66;5096093;28;19962;-74
2022/12/10 10:01:50;;;;;;;;;;;;;;;0.15;100.00;95456.00;5096188;28;19971;-74
2022/12/10 10:04:16;;;;;;;;;;;;;;;0.11;100.00;95449.59;5096032;28;20405;-74
2022/12/10 10:06:43;;;;;;;;;;;;;;;0.10;100.00;95450.56;5096287;28;19976;-74
2022/12/10 10:09:12;;;;;;;;;;;;;;;0.10;100.00;95448.78;5095921;28;19955;-74
2022/12/10 10:11:38;;;;;;;;;;;;;;;0.07;100.00;95449.16;5095686;28;20400;-74
2022/12/10 10:14:09;;;;;;;;;;;;;;;0.08;100.00;95444.78;5095647;28;19958;-74
2022/12/10 10:16:39;;;;;;;;;;;;;;;0.08;100.00;95443.00;5095919;28;20414;-73
2022/12/10 10:19:16;;;;;;;;;;;;;;;0.11;100.00;95452.97;5094353;28;19970;-74
2022/12/10 10:21:43;;;;;;;;;;;;;;;0.14;100.00;95449.22;5095461;28;19954;-74
2022/12/10 10:24:19;;;;;;;;;;;;;;;0.14;100.00;95451.81;5095859;28;19951;-74
2022/12/10 10:26:45;;;;;;;;;;;;;;;0.13;100.00;95456.19;5095791;28;19948;-74
2022/12/10 10:29:13;;;;;;;;;;;;;;;0.11;100.00;95450.41;5094858;28;19962;-74
2022/12/10 10:31:41;;;;;;;;;;;;;;;0.34;100.00;95459.84;5095341;28;19950;-73
2022/12/10 10:34:21;;;;;;;;;;;;;;;0.90;100.00;95464.47;5095307;28;19941;-73
2022/12/10 10:36:52;;;;;;;;;;;;;;;2.03;100.00;95460.34;5095077;28;19966;-73
2022/12/10 10:39:21;;;;;;;;;;;;;;;2.84;100.00;95473.50;5095282;28;19971;-74
2022/12/10 10:41:50;;;;;;;;;;;;;;;3.03;100.00;95466.81;5095463;28;19944;-74
2022/12/10 10:44:18;;;;;;;;;;;;;;;2.77;96.80;95462.34;5093713;28;19946;-74
2022/12/10 10:46:45;;;;;;;;;;;;;;;2.37;97.47;95471.69;5095006;28;20320;-74
2022/12/10 10:49:13;;;;;;;;;;;;;;;2.03;98.70;95466.28;5095058;28;19951;-74
2022/12/10 10:51:44;;;;;;;;;;;;;;;1.91;100.00;95474.75;5094965;28;19954;-75
2022/12/10 10:54:10;;;;;;;;;;;;;;;2.07;100.00;95471.91;5078874;28;19958;-73
2022/12/10 10:56:43;;;;;;;;;;;;;;;2.29;100.00;95472.66;5094907;28;19960;-73
2022/12/10 10:59:19;;;;;;;;;;;;;;;2.19;99.26;95467.81;5094784;28;19967;-74
2022/12/10 11:01:56;;;;;;;;;;;;;;;1.95;98.07;95469.03;5094698;28;19951;-74
2022/12/10 11:04:27;;;;;;;;;;;;;;;1.67;97.54;95473.38;5095085;28;19946;-73
2022/12/10 11:06:56;;;;;;;;;;;;;;;1.48;99.21;95474.81;5094819;28;19946;-73
2022/12/10 11:09:27;;;;;;;;;;;;;;;1.30;99.16;95483.78;5094651;28;19958;-73
2022/12/10 11:11:59;;;;;;;;;;;;;;;1.15;100.00;95483.00;5093302;28;19945;-73
2022/12/10 11:14:25;;;;;;;;;;;;;;;1.00;100.00;95483.06;5094686;28;19959;-73
2022/12/10 11:17:09;;;;;;;;;;;;;;;0.86;100.00;95487.28;5094463;28;19942;-73
2022/12/10 11:19:41;;;;;;;;;;;;;;;0.80;100.00;95491.38;5094586;28;19954;-73
2022/12/10 11:22:19;;;;;;;;;;;;;;;0.74;100.00;95486.13;5094607;28;19952;-73
2022/12/10 11:24:46;;;;;;;;;;;;;;;0.69;100.00;95481.50;5085309;28;19964;-73
2022/12/10 11:27:17;;;;;;;;;;;;;;;0.66;100.00;95487.03;5094201;28;20315;-72
2022/12/10 11:29:49;;;;;;;;;;;;;;;0.66;100.00;95476.72;5094183;28;19953;-72
2022/12/10 11:32:20;;;;;;;;;;;;;;;0.71;100.00;95481.31;5094544;28;19961;-72
2022/12/10 11:35:05;;;;;;;;;;;;;;;0.72;100.00;95465.66;5094114;28;19950;-73
2022/12/10 11:37:33;;;;;;;;;;;;;;;0.72;100.00;95473.41;5094091;28;19976;-73
2022/12/10 11:40:12;;;;;;;;;;;;;;;0.73;100.00;95476.78;5094020;28;20295;-72
2022/12/10 11:43:01;;;;;;;;;;;;;;;0.74;100.00;95476.59;5094270;28;20335;-72
2022/12/10 11:45:27;;;;;;;;;;;;;;;0.73;100.00;95471.63;5094121;28;19956;-73
2022/12/10 11:48:19;;;;;;;;;;;;;;;0.71;100.00;95474.38;5094229;28;19949;-73
2022/12/10 11:50:47;;;;;;;;;;;;;;;0.70;100.00;95475.38;5090674;28;19954;-73
2022/12/10 11:53:32;;;;;;;;;;;;;;;0.68;100.00;95487.66;5094067;28;20319;-73
2022/12/10 11:56:16;;;;;;;;;;;;;;;0.62;100.00;95478.03;5093818;28;19948;-72
2022/12/10 11:58:53;;;;;;;;;;;;;;;0.57;100.00;95478.59;5093831;28;20463;-73
2022/12/10 12:01:35;;;;;;;;;;;;;;;0.57;100.00;95486.31;5076014;28;20362;-73
2022/12/10 12:04:10;;;;;;;;;;;;;;;0.55;100.00;95490.06;5081048;28;19942;-73
2022/12/10 12:06:39;;;;;;;;;;;;;;;0.57;100.00;95501.00;5093760;28;19950;-73
2022/12/10 12:09:25;;;;;;;;;;;;;;;0.54;99.60;95503.94;5093586;28;19954;-73
2022/12/10 12:12:17;;;;;;;;;;;;;;;0.53;100.00;95505.72;5093891;28;19950;-73
2022/12/10 12:14:47;;;;;;;;;;;;;;;0.55;100.00;95502.97;5079454;28;19948;-73
2022/12/10 12:17:23;;;;;;;;;;;;;;;0.55;100.00;95505.53;5093282;28;20308;-73
2022/12/10 12:19:52;;;;;;;;;;;;;;;0.54;100.00;95502.13;5093969;28;19953;-73
2022/12/10 12:22:26;;;;;;;;;;;;;;;0.54;100.00;95503.94;5093642;28;19953;-73
2022/12/10 12:24:59;;;;;;;;;;;;;;;0.68;100.00;95504.91;5094116;28;19970;-73
2022/12/10 12:27:36;;;;;;;;;;;;;;;1.10;100.00;95509.38;5093821;28;19984;-74
2022/12/10 12:30:05;;;;;;;;;;;;;;;1.15;98.90;95509.63;5085277;28;19955;-74
2022/12/10 12:32:31;;;;;;;;;;;;;;;1.08;99.77;95519.09;5093549;28;20329;-74
2022/12/10 12:35:02;;;;;;;;;;;;;;;0.99;98.67;95522.78;5093507;28;19950;-75
2022/12/10 12:37:54;;;;;;;;;;;;;;;0.90;96.90;95529.78;5093418;28;20038;-74
2022/12/10 12:40:27;;;;;;;;;;;;;;;0.81;98.18;95536.03;5089874;28;20333;-74
2022/12/10 12:42:58;;;;;;;;;;;;;;;0.76;98.91;95538.38;5093477;28;19953;-74
2022/12/10 12:45:39;;;;;;;;;;;;;;;0.74;97.79;95533.38;5093397;28;19956;-74
2022/12/10 12:48:16;;;;;;;;;;;;;;;0.75;97.60;95531.59;5093320;28;19946;-74
2022/12/10 12:50:54;;;;;;;;;;;;;;;0.75;99.38;95529.00;5093272;28;19943;-74
2022/12/10 12:53:23;;;;;;;;;;;;;;;0.77;99.76;95529.63;5095203;28;20452;-74
2022/12/10 12:56:07;;;;;;;;;;;;;;;0.84;99.02;95537.44;5096882;28;19958;-75
2022/12/10 12:58:37;;;;;;;;;;;;;;;0.86;98.79;95532.91;5097254;28;19971;-74